Main page
METAR-TAF:

METAR-TAF

Airports :

Nancy-Essey Airport

Nancy, France

latitude: 48-41N, longitude: 006-13E, elevation: 225 m

Current weather observation

The report was made 15 minutes ago, at 12:00 UTC
Wind 7 kt from the North/Northeast, varying between Northwest and East/Northeast
Temperature 10°C
Humidity 40%
Pressure 1019 hPa
Visibility 10 km or more
no clouds below 1500 m and no cumulonimbus

METAR: LFSN 011200Z AUTO 02007KT 310V070 CAVOK 10/M03 Q1019

Time: 14:15 (12:15 UTC)


TAF: missing

Weather observations and forecasts of more than 4000 airports (METAR and TAF reports).

The available stations are represented by yellow and red dots on the map.

Hover mouse over dot to see the name of the station.

Then click to see weather observations and forecasts.

To change the map : click on the green buttons with a black cross to zoom in, on the green button with a dash to zoom out, or on the green arrows for adjacent maps.


METAR-TAF: